Time;durP1;ratioP1;P1;durP2;ratioP2;P2;SDS_P1;SDS_P2;PMS_P1;PMS_P2;Temp;Humidity;BMP_temperature;BMP_pressure;BME280_temperature;BME280_humidity;BME280_pressure;Samples;Min_cycle;Max_cycle;Signal;HPM_P1;HPM_P2
2021/10/18 00:01:47;;;;;;;13.98;1.90;;;;;15.80;101073.00;;;;5088816;28;20131;-72
2021/10/18 00:04:16;;;;;;;15.38;2.33;;;;;15.80;101075.00;;;;5088422;28;20068;-73
2021/10/18 00:06:46;;;;;;;11.25;1.67;;;;;15.70;101078.00;;;;5097658;28;20059;-74
2021/10/18 00:09:15;;;;;;;9.25;1.70;;;;;15.70;101072.00;;;;5098953;28;20043;-72
2021/10/18 00:11:45;;;;;;;17.38;2.10;;;;;15.70;101079.00;;;;5097939;28;20123;-71
2021/10/18 00:14:15;;;;;;;9.73;2.20;;;;;15.70;101075.00;;;;5096738;28;20059;-72
2021/10/18 00:16:44;;;;;;;16.42;2.85;;;;;15.70;101058.00;;;;5098160;28;20101;-72
2021/10/18 00:19:14;;;;;;;13.38;2.50;;;;;15.60;101073.00;;;;5098884;28;20150;-73
2021/10/18 00:21:44;;;;;;;10.65;1.80;;;;;15.40;101083.00;;;;5099856;28;20065;-73
2021/10/18 00:24:13;;;;;;;9.15;2.08;;;;;15.20;101078.00;;;;5108171;28;20058;-73
2021/10/18 00:26:43;;;;;;;13.43;2.13;;;;;15.10;101085.00;;;;5107919;28;20146;-73
2021/10/18 00:29:12;;;;;;;10.52;1.83;;;;;15.20;101089.00;;;;5108330;28;20113;-72
2021/10/18 00:31:42;;;;;;;7.70;1.63;;;;;15.10;101068.00;;;;5108194;28;20044;-72
2021/10/18 00:34:11;;;;;;;14.00;2.15;;;;;15.00;101073.00;;;;5107706;28;20055;-74
2021/10/18 00:36:41;;;;;;;8.07;1.40;;;;;15.00;101099.00;;;;5101638;28;20036;-73
2021/10/18 00:39:10;;;;;;;8.52;1.67;;;;;14.90;101087.00;;;;5096408;28;20044;-72
2021/10/18 00:41:40;;;;;;;12.48;1.52;;;;;14.80;101090.00;;;;5096771;28;20039;-73
2021/10/18 00:44:09;;;;;;;11.70;1.92;;;;;14.70;101078.00;;;;5098317;28;20031;-73
2021/10/18 00:46:39;;;;;;;6.63;1.60;;;;;14.50;101077.00;;;;5097100;28;20051;-73
2021/10/18 00:49:08;;;;;;;12.25;1.75;;;;;14.40;101088.00;;;;5104727;28;20053;-72
2021/10/18 00:51:38;;;;;;;9.82;1.75;;;;;14.30;101086.00;;;;5108021;28;20050;-74
2021/10/18 00:54:08;;;;;;;8.38;1.38;;;;;14.10;101077.00;;;;5104553;28;20039;-73
2021/10/18 00:56:38;;;;;;;9.95;1.45;;;;;14.00;101070.00;;;;5095953;28;20058;-73
2021/10/18 00:59:08;;;;;;;15.48;2.38;;;;;14.00;101100.00;;;;5097294;28;20039;-73
2021/10/18 01:01:40;;;;;;;8.55;1.63;;;;;13.90;101084.00;;;;5098498;28;20043;-72
2021/10/18 01:04:11;;;;;;;10.95;1.67;;;;;13.90;101075.00;;;;5097298;28;20068;-74
2021/10/18 01:06:40;;;;;;;16.73;2.03;;;;;13.70;101099.00;;;;5096568;28;20078;-73
2021/10/18 01:09:10;;;;;;;11.15;1.60;;;;;13.60;101076.00;;;;5097269;27;20105;-73
2021/10/18 01:11:39;;;;;;;15.13;1.98;;;;;13.50;101071.00;;;;5098248;28;20597;-73
2021/10/18 01:14:09;;;;;;;12.35;1.92;;;;;13.50;101056.00;;;;5097359;28;20047;-73
2021/10/18 01:16:38;;;;;;;8.82;1.88;;;;;13.50;101075.00;;;;5095697;28;20487;-73
2021/10/18 01:19:17;;;;;;;12.20;1.80;;;;;13.60;101078.00;;;;5097099;28;20039;-74
2021/10/18 01:21:47;;;;;;;9.20;1.83;;;;;13.60;101096.00;;;;5094757;28;20036;-72
2021/10/18 01:24:16;;;;;;;12.63;2.33;;;;;13.60;101093.00;;;;5095593;28;20582;-74
2021/10/18 01:26:46;;;;;;;14.27;1.90;;;;;13.70;101092.00;;;;5094625;28;20422;-73
2021/10/18 01:29:15;;;;;;;9.82;1.58;;;;;13.50;101094.00;;;;5095878;28;20051;-74
2021/10/18 01:31:45;;;;;;;9.50;1.50;;;;;13.30;101071.00;;;;5066331;28;20048;-72
2021/10/18 01:34:14;;;;;;;14.73;2.03;;;;;13.20;101078.00;;;;5068064;28;20077;-73
2021/10/18 01:36:44;;;;;;;12.30;1.65;;;;;13.00;101053.00;;;;5064987;28;20460;-73
2021/10/18 01:39:14;;;;;;;14.77;2.20;;;;;12.90;101053.00;;;;5066364;28;20048;-72
2021/10/18 01:41:43;;;;;;;11.63;1.63;;;;;12.80;101061.00;;;;5066294;28;20048;-73
2021/10/18 01:44:12;;;;;;;9.57;1.73;;;;;12.80;101068.00;;;;5066800;28;20049;-72
2021/10/18 01:46:42;;;;;;;10.52;1.70;;;;;13.00;101042.00;;;;5066441;28;20053;-72
2021/10/18 01:49:13;;;;;;;12.75;1.83;;;;;13.10;101068.00;;;;5065814;28;20154;-73
2021/10/18 01:51:42;;;;;;;12.60;2.03;;;;;13.20;101054.00;;;;5065927;28;20110;-72
2021/10/18 01:54:11;;;;;;;9.45;1.70;;;;;13.30;101075.00;;;;5066657;28;20286;-72
2021/10/18 01:56:41;;;;;;;7.47;1.67;;;;;13.10;101072.00;;;;5066581;28;20086;-72
2021/10/18 01:59:10;;;;;;;7.60;1.50;;;;;13.10;101053.00;;;;5067154;28;20499;-73
2021/10/18 02:01:40;;;;;;;10.95;1.83;;;;;13.00;101044.00;;;;5067200;28;20510;-73
2021/10/18 02:04:10;;;;;;;10.48;1.95;;;;;13.00;101048.00;;;;5065828;28;20068;-72
2021/10/18 02:06:39;;;;;;;10.95;1.65;;;;;13.00;101048.00;;;;5066642;28;20063;-72
2021/10/18 02:09:08;;;;;;;8.57;1.17;;;;;13.00;101042.00;;;;5067030;28;20611;-74
2021/10/18 02:11:38;;;;;;;15.55;1.65;;;;;13.30;101057.00;;;;5066750;28;20044;-73
2021/10/18 02:14:07;;;;;;;18.02;2.08;;;;;13.20;101022.00;;;;5066458;28;20037;-73
2021/10/18 02:16:36;;;;;;;7.75;1.88;;;;;13.00;101048.00;;;;5066274;28;20032;-73
2021/10/18 02:19:06;;;;;;;11.20;1.75;;;;;12.90;101047.00;;;;5065592;28;20055;-72
2021/10/18 02:21:36;;;;;;;19.42;1.95;;;;;12.80;101041.00;;;;5066863;28;20048;-74
2021/10/18 02:24:05;;;;;;;12.13;1.83;;;;;12.80;101045.00;;;;5067174;28;20484;-73
2021/10/18 02:26:35;;;;;;;18.10;1.80;;;;;12.70;101030.00;;;;5066103;28;20542;-74
2021/10/18 02:29:05;;;;;;;7.15;1.85;;;;;12.60;101034.00;;;;5064900;28;20052;-74
2021/10/18 02:31:34;;;;;;;8.43;1.45;;;;;12.50;101044.00;;;;5066443;28;20098;-72
2021/10/18 02:34:04;;;;;;;8.90;1.58;;;;;12.40;101024.00;;;;5081842;28;20052;-72
2021/10/18 02:36:34;;;;;;;12.70;1.63;;;;;12.40;101034.00;;;;5066236;28;20048;-74
2021/10/18 02:39:03;;;;;;;18.15;1.55;;;;;12.30;101028.00;;;;5066744;28;20047;-73
2021/10/18 02:41:33;;;;;;;8.85;1.80;;;;;12.30;101022.00;;;;5066598;28;20040;-73
2021/10/18 02:44:02;;;;;;;9.75;1.50;;;;;12.20;101009.00;;;;5066345;28;20052;-73
2021/10/18 02:46:32;;;;;;;8.10;1.70;;;;;12.20;101021.00;;;;5066424;28;20055;-72
2021/10/18 02:49:02;;;;;;;8.35;1.55;;;;;12.20;101017.00;;;;5067247;28;20048;-72
2021/10/18 02:51:31;;;;;;;15.73;1.88;;;;;12.20;101000.00;;;;5066111;28;20526;-73
2021/10/18 02:54:04;;;;;;;14.95;1.90;;;;;12.20;101011.00;;;;5065995;28;20044;-73
2021/10/18 02:56:34;;;;;;;11.95;1.45;;;;;12.10;100998.00;;;;5064784;28;20040;-73
2021/10/18 02:59:04;;;;;;;10.43;1.80;;;;;12.00;100985.00;;;;5065441;28;20408;-72
2021/10/18 03:01:33;;;;;;;12.52;1.63;;;;;12.00;100999.00;;;;5066331;28;20730;-73
2021/10/18 03:04:03;;;;;;;12.55;1.70;;;;;11.90;101016.00;;;;5066464;28;20072;-73
2021/10/18 03:06:32;;;;;;;35.42;26.23;;;;;11.90;101010.00;;;;5065808;28;20098;-73
2021/10/18 03:09:02;;;;;;;7.22;1.70;;;;;11.90;100995.00;;;;5066268;28;20038;-73
2021/10/18 03:11:32;;;;;;;7.00;1.42;;;;;11.90;100996.00;;;;5066178;28;20045;-73
2021/10/18 03:14:01;;;;;;;9.50;1.63;;;;;11.90;100989.00;;;;5066317;28;20056;-73
2021/10/18 03:16:32;;;;;;;14.07;1.70;;;;;11.90;100994.00;;;;5067899;28;20052;-73
2021/10/18 03:19:02;;;;;;;9.25;1.55;;;;;11.80;100981.00;;;;5069833;28;20562;-73
2021/10/18 03:21:31;;;;;;;10.60;1.67;;;;;11.80;100999.00;;;;5070251;28;20163;-73
2021/10/18 03:24:01;;;;;;;7.85;1.73;;;;;11.70;100998.00;;;;5069851;28;20094;-73
2021/10/18 03:26:30;;;;;;;11.80;1.40;;;;;11.70;100996.00;;;;5069063;28;20040;-73
2021/10/18 03:29:00;;;;;;;13.00;1.67;;;;;11.60;100965.00;;;;5068959;28;20040;-73
2021/10/18 03:31:30;;;;;;;11.32;1.55;;;;;11.60;100990.00;;;;5069280;28;20569;-73
2021/10/18 03:33:59;;;;;;;11.07;1.70;;;;;11.50;100971.00;;;;5068293;28;20538;-74
2021/10/18 03:36:29;;;;;;;11.00;1.63;;;;;11.40;100992.00;;;;5069645;28;20090;-73
2021/10/18 03:38:59;;;;;;;8.07;1.70;;;;;11.30;100969.00;;;;5069640;28;20043;-73
2021/10/18 03:41:28;;;;;;;10.30;1.77;;;;;11.30;100977.00;;;;5069740;28;20044;-73
2021/10/18 03:43:57;;;;;;;12.77;1.63;;;;;11.30;100985.00;;;;5069188;28;20045;-73
2021/10/18 03:46:27;;;;;;;17.42;1.60;;;;;11.30;100972.00;;;;5068881;28;20044;-73
2021/10/18 03:48:57;;;;;;;14.05;1.60;;;;;11.30;100954.00;;;;5069068;28;20047;-73
2021/10/18 03:51:26;;;;;;;8.32;1.70;;;;;11.30;100970.00;;;;5069004;28;20074;-74
2021/10/18 03:53:56;;;;;;;9.40;1.67;;;;;11.30;100940.00;;;;5068979;28;20495;-73
2021/10/18 03:56:25;;;;;;;15.98;1.77;;;;;11.30;100954.00;;;;5068551;28;20068;-74
2021/10/18 03:58:55;;;;;;;7.75;1.30;;;;;11.30;100966.00;;;;5069128;28;20499;-73
2021/10/18 04:01:25;;;;;;;8.68;1.40;;;;;11.30;100961.00;;;;5068625;28;20450;-73
2021/10/18 04:03:54;;;;;;;11.13;1.52;;;;;11.30;100949.00;;;;5069051;28;20458;-73
2021/10/18 04:06:24;;;;;;;3.92;1.17;;;;;11.20;100945.00;;;;5069196;28;20053;-73
2021/10/18 04:08:54;;;;;;;10.07;1.45;;;;;11.10;100952.00;;;;5068739;28;20094;-73
2021/10/18 04:11:23;;;;;;;6.20;1.20;;;;;11.00;100949.00;;;;5068938;28;20052;-74
2021/10/18 04:13:58;;;;;;;11.32;1.30;;;;;11.00;100932.00;;;;5068752;28;20063;-73
2021/10/18 04:16:28;;;;;;;12.98;1.70;;;;;11.00;100936.00;;;;5068352;28;20036;-73
2021/10/18 04:18:58;;;;;;;9.57;1.48;;;;;10.90;100943.00;;;;5066984;28;20139;-73
2021/10/18 04:21:28;;;;;;;10.57;2.15;;;;;11.00;100926.00;;;;5068205;28;20044;-73
2021/10/18 04:23:58;;;;;;;9.65;1.58;;;;;10.90;100946.00;;;;5068672;28;20093;-73
2021/10/18 04:26:27;;;;;;;7.13;1.00;;;;;10.90;100932.00;;;;5068516;28;20125;-74
2021/10/18 04:28:57;;;;;;;12.10;1.58;;;;;10.90;100915.00;;;;5068437;28;20500;-73
2021/10/18 04:31:28;;;;;;;9.52;1.33;;;;;10.90;100912.00;;;;5068428;28;20517;-73
2021/10/18 04:33:59;;;;;;;6.55;1.45;;;;;10.80;100926.00;;;;5068396;28;20041;-72
2021/10/18 04:36:30;;;;;;;18.23;2.15;;;;;10.90;100906.00;;;;5068659;28;20041;-73
2021/10/18 04:38:59;;;;;;;16.05;1.77;;;;;10.90;100895.00;;;;5068287;28;20075;-73
2021/10/18 04:41:28;;;;;;;10.30;1.35;;;;;10.90;100917.00;;;;5067987;28;20048;-74
2021/10/18 04:43:58;;;;;;;15.60;1.90;;;;;11.00;100895.00;;;;5068029;28;20048;-74
2021/10/18 04:46:27;;;;;;;14.02;2.03;;;;;11.00;100886.00;;;;5067886;28;20114;-72
2021/10/18 04:48:57;;;;;;;9.35;1.48;;;;;11.10;100898.00;;;;5068060;28;20131;-74
2021/10/18 04:51:26;;;;;;;15.30;2.08;;;;;11.20;100902.00;;;;5067546;28;20051;-74
2021/10/18 04:53:56;;;;;;;12.70;1.90;;;;;11.20;100880.00;;;;5067796;28;20051;-73
2021/10/18 04:56:26;;;;;;;13.95;2.17;;;;;11.10;100876.00;;;;5067935;28;20059;-73
2021/10/18 04:58:55;;;;;;;9.20;1.48;;;;;11.10;100878.00;;;;5067923;28;20055;-74
2021/10/18 05:01:24;;;;;;;9.00;1.60;;;;;11.10;100873.00;;;;5067425;28;20058;-74
2021/10/18 05:03:54;;;;;;;13.50;1.80;;;;;11.10;100899.00;;;;5067840;28;20044;-72
2021/10/18 05:06:23;;;;;;;15.35;1.83;;;;;11.10;100885.00;;;;5067665;28;20052;-73
2021/10/18 05:08:54;;;;;;;12.35;1.67;;;;;11.10;100891.00;;;;5067523;28;20058;-74
2021/10/18 05:11:23;;;;;;;9.90;1.50;;;;;11.10;100877.00;;;;5067248;28;20095;-73
2021/10/18 05:13:53;;;;;;;12.43;1.95;;;;;11.00;100881.00;;;;5067575;28;20062;-73
2021/10/18 05:16:22;;;;;;;9.02;1.63;;;;;11.00;100876.00;;;;5067594;28;20098;-73
2021/10/18 05:18:52;;;;;;;11.18;1.60;;;;;10.90;100859.00;;;;5067780;28;20658;-73
2021/10/18 05:21:21;;;;;;;10.77;1.58;;;;;10.80;100886.00;;;;5066186;28;20098;-74
2021/10/18 05:23:50;;;;;;;11.85;2.15;;;;;10.70;100857.00;;;;5067917;28;20051;-74
2021/10/18 05:26:20;;;;;;;11.70;1.65;;;;;10.60;100882.00;;;;5066267;28;20060;-72
2021/10/18 05:28:49;;;;;;;9.82;1.67;;;;;10.60;100869.00;;;;5066951;28;20067;-73
2021/10/18 05:31:18;;;;;;;6.07;1.10;;;;;10.50;100868.00;;;;5067475;28;20048;-74
2021/10/18 05:33:48;;;;;;;8.93;1.45;;;;;10.50;100857.00;;;;5067273;28;20056;-73
2021/10/18 05:36:17;;;;;;;10.13;1.65;;;;;10.40;100853.00;;;;5067096;28;20045;-73
2021/10/18 05:38:47;;;;;;;9.27;1.42;;;;;10.40;100856.00;;;;5066323;28;20044;-73
2021/10/18 05:41:16;;;;;;;6.03;1.33;;;;;10.50;100862.00;;;;5066749;28;20078;-73
2021/10/18 05:43:46;;;;;;;9.18;1.50;;;;;10.50;100846.00;;;;5067223;28;20492;-73
2021/10/18 05:46:15;;;;;;;9.68;1.63;;;;;10.50;100858.00;;;;5067199;28;20125;-73
2021/10/18 05:48:45;;;;;;;10.32;1.50;;;;;10.50;100863.00;;;;5066828;28;20048;-73
2021/10/18 05:51:14;;;;;;;10.35;1.80;;;;;10.50;100868.00;;;;5067830;28;20523;-73
2021/10/18 05:53:43;;;;;;;14.05;1.38;;;;;10.50;100856.00;;;;5066548;28;20052;-73
2021/10/18 05:56:13;;;;;;;7.97;1.65;;;;;10.50;100844.00;;;;5066675;28;20048;-73
2021/10/18 05:58:43;;;;;;;12.82;1.70;;;;;10.50;100854.00;;;;5066818;28;20048;-73
2021/10/18 06:01:13;;;;;;;15.10;1.73;;;;;10.40;100869.00;;;;5067710;28;20044;-73
2021/10/18 06:03:43;;;;;;;9.52;1.63;;;;;10.40;100862.00;;;;5066504;28;20558;-73
2021/10/18 06:06:12;;;;;;;7.00;1.33;;;;;10.40;100844.00;;;;5066360;28;20071;-73
2021/10/18 06:09:04;;;;;;;8.07;1.60;;;;;10.30;100865.00;;;;5066647;28;20125;-72
2021/10/18 06:11:36;;;;;;;13.35;1.58;;;;;10.20;100859.00;;;;5066326;28;20455;-73
2021/10/18 06:14:06;;;;;;;10.48;1.50;;;;;10.20;100848.00;;;;5065185;28;20045;-73
2021/10/18 06:16:35;;;;;;;14.60;2.05;;;;;10.20;100860.00;;;;5065837;28;20078;-73
2021/10/18 06:19:05;;;;;;;11.23;1.38;;;;;10.20;100865.00;;;;5066869;28;20041;-73
2021/10/18 06:21:34;;;;;;;6.95;1.25;;;;;10.20;100859.00;;;;5066600;28;20051;-73
2021/10/18 06:24:04;;;;;;;10.63;1.73;;;;;10.20;100866.00;;;;5066131;28;20055;-73
2021/10/18 06:26:35;;;;;;;5.47;1.42;;;;;10.20;100872.00;;;;5065298;28;20072;-74
2021/10/18 06:29:05;;;;;;;6.22;1.30;;;;;10.30;100862.00;;;;5066889;28;20059;-73
2021/10/18 06:31:35;;;;;;;11.90;1.42;;;;;10.30;100838.00;;;;5066768;28;20047;-73
2021/10/18 06:34:04;;;;;;;6.57;1.02;;;;;10.20;100850.00;;;;5067191;28;20044;-74
2021/10/18 06:36:34;;;;;;;6.40;1.77;;;;;10.20;100827.00;;;;5066597;28;20043;-73
2021/10/18 06:39:03;;;;;;;11.63;1.48;;;;;10.30;100820.00;;;;5066376;28;21218;-73
2021/10/18 06:41:33;;;;;;;11.75;1.45;;;;;10.30;100847.00;;;;5067007;28;20040;-73
2021/10/18 06:44:03;;;;;;;8.88;1.52;;;;;10.20;100843.00;;;;5066448;28;20043;-74
2021/10/18 06:46:32;;;;;;;9.90;1.67;;;;;10.20;100834.00;;;;5065370;28;20041;-73
2021/10/18 06:49:03;;;;;;;7.00;1.52;;;;;10.20;100853.00;;;;5066170;28;20060;-74
2021/10/18 06:51:42;;;;;;;8.93;1.55;;;;;10.30;100822.00;;;;5069551;28;20102;-74
2021/10/18 06:54:13;;;;;;;18.80;2.03;;;;;10.20;100851.00;;;;5069092;28;20136;-73
2021/10/18 06:56:46;;;;;;;12.40;1.50;;;;;10.20;100845.00;;;;5069890;28;20044;-73
2021/10/18 06:59:16;;;;;;;16.33;1.98;;;;;10.20;100863.00;;;;5070075;28;20049;-74
2021/10/18 07:01:46;;;;;;;8.27;1.63;;;;;10.20;100844.00;;;;5070018;28;20037;-72
2021/10/18 07:04:18;;;;;;;13.00;1.30;;;;;10.30;100860.00;;;;5070395;28;20055;-74
2021/10/18 07:06:48;;;;;;;14.98;1.85;;;;;10.30;100856.00;;;;5070008;28;20127;-73
2021/10/18 07:09:18;;;;;;;11.73;1.80;;;;;10.30;100864.00;;;;5069102;28;20044;-73
2021/10/18 07:11:47;;;;;;;13.13;1.55;;;;;10.20;100851.00;;;;5070036;28;20098;-74
2021/10/18 07:14:16;;;;;;;6.85;1.48;;;;;10.10;100872.00;;;;5069593;28;20048;-74
2021/10/18 07:16:46;;;;;;;14.65;1.83;;;;;10.00;100850.00;;;;5069267;28;20132;-73
2021/10/18 07:19:15;;;;;;;15.00;1.70;;;;;10.00;100873.00;;;;5069533;28;20059;-73
2021/10/18 07:21:46;;;;;;;5.10;1.20;;;;;9.90;100864.00;;;;5069699;28;20055;-74
2021/10/18 07:24:17;;;;;;;8.43;1.70;;;;;9.90;100876.00;;;;5069669;28;20054;-74
2021/10/18 07:26:50;;;;;;;7.93;1.42;;;;;10.00;100872.00;;;;5069867;28;20047;-73
2021/10/18 07:29:21;;;;;;;5.68;1.40;;;;;10.00;100868.00;;;;5069292;28;20044;-73
2021/10/18 07:31:51;;;;;;;;;;;;;10.00;100876.00;;;;5070716;28;20048;-73
2021/10/18 07:34:22;;;;;;;5.15;1.20;;;;;10.00;100849.00;;;;5069749;28;19924;-73
2021/10/18 07:36:52;;;;;;;13.48;1.55;;;;;10.00;100858.00;;;;5069381;28;20052;-73
2021/10/18 07:39:24;;;;;;;12.05;1.65;;;;;9.90;100866.00;;;;5069352;28;20053;-73
2021/10/18 07:41:56;;;;;;;13.95;2.00;;;;;9.90;100878.00;;;;5069346;28;20079;-73
2021/10/18 07:44:27;;;;;;;10.80;1.25;;;;;9.90;100873.00;;;;5069354;28;20055;-73
2021/10/18 07:46:59;;;;;;;6.97;1.58;;;;;9.90;100893.00;;;;5069331;28;20602;-73
2021/10/18 07:49:36;;;;;;;14.43;1.48;;;;;9.90;100888.00;;;;5069122;28;20430;-73
2021/10/18 07:52:11;;;;;;;8.77;1.67;;;;;9.80;100864.00;;;;5069537;28;20423;-73
2021/10/18 07:54:43;;;;;;;13.20;1.38;;;;;9.70;100888.00;;;;5069323;28;20049;-74
2021/10/18 07:57:14;;;;;;;13.27;1.63;;;;;9.70;100852.00;;;;5069237;28;20123;-73
2021/10/18 07:59:45;;;;;;;20.95;2.05;;;;;9.60;100884.00;;;;5069549;28;20431;-73
2021/10/18 08:02:14;;;;;;;5.97;1.20;;;;;9.60;100886.00;;;;5067953;28;20056;-73
2021/10/18 08:04:44;;;;;;;9.85;1.85;;;;;9.70;100883.00;;;;5068859;28;20519;-74
2021/10/18 08:07:13;;;;;;;9.20;1.67;;;;;9.70;100863.00;;;;5068532;28;20520;-74
2021/10/18 08:09:43;;;;;;;13.25;1.63;;;;;9.80;100879.00;;;;5068594;28;20064;-74
2021/10/18 08:12:12;;;;;;;10.40;1.70;;;;;9.90;100872.00;;;;5068848;28;20048;-74
2021/10/18 08:14:41;;;;;;;12.32;2.05;;;;;9.80;100866.00;;;;5068656;28;20048;-73
2021/10/18 08:17:11;;;;;;;10.45;1.63;;;;;9.70;100898.00;;;;5068620;28;20056;-73
2021/10/18 08:19:40;;;;;;;13.18;1.88;;;;;9.80;100901.00;;;;5068612;28;20052;-74
2021/10/18 08:22:10;;;;;;;12.77;1.30;;;;;9.80;100901.00;;;;5069080;28;20056;-73
2021/10/18 08:24:39;;;;;;;13.55;1.55;;;;;10.00;100893.00;;;;5069402;28;20102;-74
2021/10/18 08:27:09;;;;;;;9.80;1.58;;;;;10.10;100881.00;;;;5068330;28;20040;-74
2021/10/18 08:29:38;;;;;;;19.45;1.88;;;;;10.20;100913.00;;;;5068586;28;20755;-72
2021/10/18 08:32:07;;;;;;;29.38;2.28;;;;;10.30;100923.00;;;;5067297;28;20040;-74
2021/10/18 08:34:37;;;;;;;17.42;2.10;;;;;10.40;100911.00;;;;5066644;28;20072;-74
2021/10/18 08:37:07;;;;;;;17.77;1.60;;;;;10.50;100932.00;;;;5068427;28;20048;-74
2021/10/18 08:42:25;;;;;;;13.27;1.95;;;;;10.60;100935.00;;;;5068128;28;20049;-74
2021/10/18 08:44:56;;;;;;;21.05;2.30;;;;;10.60;100916.00;;;;5066643;28;20139;-74
2021/10/18 08:47:26;;;;;;;16.35;1.65;;;;;10.70;100942.00;;;;5068118;28;20051;-73
2021/10/18 08:49:56;;;;;;;12.65;1.48;;;;;10.70;100949.00;;;;5083834;28;20055;-74
2021/10/18 08:52:25;;;;;;;14.68;1.50;;;;;10.80;100958.00;;;;5068400;28;20072;-74
2021/10/18 08:54:55;;;;;;;30.20;3.40;;;;;10.90;100958.00;;;;5067762;28;20055;-73
2021/10/18 08:57:25;;;;;;;10.32;2.00;;;;;10.90;100961.00;;;;5067852;28;20048;-74
2021/10/18 08:59:55;;;;;;;14.23;2.00;;;;;10.90;100952.00;;;;5068127;28;20044;-74
2021/10/18 09:02:39;;;;;;;12.57;1.70;;;;;11.00;100958.00;;;;5067855;28;20059;-74
2021/10/18 09:05:10;;;;;;;10.27;1.52;;;;;11.00;100984.00;;;;5067525;28;20044;-73
2021/10/18 09:07:39;;;;;;;16.70;2.13;;;;;11.10;100992.00;;;;5067749;28;20052;-73
2021/10/18 09:10:13;;;;;;;10.90;1.60;;;;;11.20;100996.00;;;;5067922;28;20075;-74
2021/10/18 09:12:44;;;;;;;12.27;2.25;;;;;11.30;101006.00;;;;5067459;28;20046;-74
2021/10/18 09:15:26;;;;;;;12.40;2.08;;;;;11.40;100982.00;;;;5067427;28;20048;-73
2021/10/18 09:18:00;;;;;;;9.32;1.65;;;;;11.50;101004.00;;;;5066756;28;20044;-75
2021/10/18 09:20:36;;;;;;;10.75;2.50;;;;;11.50;101000.00;;;;5067052;28;20090;-74
2021/10/18 09:23:29;;;;;;;15.63;1.58;;;;;11.60;101005.00;;;;5067458;28;20072;-74
2021/10/18 09:26:10;;;;;;;26.48;2.67;;;;;11.80;101019.00;;;;5067914;28;20041;-74
2021/10/18 09:28:40;;;;;;;10.02;2.05;;;;;11.90;101030.00;;;;5066902;28;20056;-74
2021/10/18 09:31:19;;;;;;;13.20;2.03;;;;;12.00;101035.00;;;;5067115;28;20048;-73
2021/10/18 09:33:56;;;;;;;10.15;1.63;;;;;12.00;101041.00;;;;5067161;28;20094;-74
2021/10/18 09:36:30;;;;;;;16.40;2.13;;;;;12.00;101042.00;;;;5067598;28;20055;-74
2021/10/18 09:39:41;;;;;;;5.72;1.30;;;;;12.00;101044.00;;;;5067467;28;20647;-74
2021/10/18 09:42:14;;;;;;;10.25;2.25;;;;;12.10;101057.00;;;;5004893;28;20046;-74
2021/10/18 09:45:02;;;;;;;12.93;1.95;;;;;12.30;101050.00;;;;5005543;28;20124;-74
2021/10/18 10:51:38;;;;;;;12.05;3.10;;;;;18.40;101060.00;;;;5068821;28;20048;-74
2021/10/18 10:54:08;;;;;;;15.25;2.80;;;;;17.20;101037.00;;;;5070196;28;20051;-74
2021/10/18 10:56:45;;;;;;;11.38;2.72;;;;;22.60;100768.00;;;;5069983;28;20040;-74
2021/10/18 10:59:25;;;;;;;10.20;3.03;;;;;20.80;100986.00;;;;5070369;28;20052;-73
2021/10/18 11:02:02;;;;;;;14.40;3.15;;;;;18.40;100780.00;;;;5071168;28;20041;-73
2021/10/18 11:04:33;;;;;;;13.52;3.25;;;;;22.50;100759.00;;;;5069837;28;20041;-73
2021/10/18 11:07:12;;;;;;;17.17;4.00;;;;;20.50;101035.00;;;;5069671;28;20408;-74
2021/10/18 11:09:53;;;;;;;22.60;3.80;;;;;17.70;101074.00;;;;5069703;28;20132;-73
2021/10/18 11:12:42;;;;;;;33.70;4.88;;;;;19.10;101015.00;;;;5068304;28;20071;-73
2021/10/18 11:15:14;;;;;;;8.05;2.58;;;;;18.00;101059.00;;;;5068770;28;20053;-73
2021/10/18 11:17:51;;;;;;;13.77;3.15;;;;;17.60;100961.00;;;;5069416;28;20045;-74
2021/10/18 11:20:23;;;;;;;23.85;3.88;;;;;23.60;100835.00;;;;5069421;28;20059;-73
2021/10/18 11:22:55;;;;;;;10.57;2.72;;;;;24.60;100828.00;;;;5069488;28;20048;-73
2021/10/18 11:25:33;;;;;;;13.27;2.60;;;;;24.70;100853.00;;;;5069593;28;20040;-74
2021/10/18 11:28:06;;;;;;;11.20;3.30;;;;;24.10;100958.00;;;;5069917;28;20044;-74
2021/10/18 11:30:38;;;;;;;33.30;4.75;;;;;23.80;100822.00;;;;5069063;28;20503;-74
2021/10/18 11:33:11;;;;;;;31.63;7.70;;;;;24.00;100817.00;;;;5069539;28;20068;-74
2021/10/18 11:35:42;;;;;;;10.98;2.67;;;;;23.70;100828.00;;;;5069016;28;20041;-75
2021/10/18 11:38:13;;;;;;;18.35;2.92;;;;;22.80;100913.00;;;;5069076;28;20059;-74
2021/10/18 11:40:52;;;;;;;22.38;5.28;;;;;21.30;101019.00;;;;5069461;28;20119;-73
2021/10/18 11:43:30;;;;;;;9.00;2.50;;;;;22.10;100956.00;;;;5069426;28;20059;-74
2021/10/18 11:45:59;;;;;;;15.52;3.00;;;;;21.30;100998.00;;;;5068944;28;20051;-74
2021/10/18 11:48:31;;;;;;;8.73;2.88;;;;;20.60;100983.00;;;;5069680;28;20048;-74
2021/10/18 11:51:02;;;;;;;24.90;4.80;;;;;21.30;100982.00;;;;5069144;28;20071;-75
2021/10/18 11:53:41;;;;;;;31.20;4.82;;;;;22.50;101021.00;;;;5069196;28;20090;-74
2021/10/18 11:56:18;;;;;;;12.23;2.53;;;;;22.10;101002.00;;;;5069195;28;20037;-74
2021/10/18 11:58:50;;;;;;;22.27;3.85;;;;;23.00;101002.00;;;;5068829;28;20058;-75
2021/10/18 12:01:22;;;;;;;55.58;6.43;;;;;22.50;101026.00;;;;5069487;28;20047;-75
2021/10/18 12:03:59;;;;;;;35.33;3.60;;;;;22.30;101026.00;;;;5068862;28;20036;-74
2021/10/18 12:06:29;;;;;;;10.85;2.70;;;;;21.60;101040.00;;;;5068808;28;20517;-74
2021/10/18 12:09:00;;;;;;;13.68;1.92;;;;;21.20;101056.00;;;;5068694;28;20052;-73
2021/10/18 12:11:30;;;;;;;8.90;2.05;;;;;20.80;101070.00;;;;5084372;28;20139;-76
2021/10/18 12:14:03;;;;;;;8.07;2.03;;;;;20.70;101046.00;;;;5068678;28;20048;-74
2021/10/18 12:16:33;;;;;;;27.90;3.67;;;;;21.70;101032.00;;;;5068584;28;20411;-74
2021/10/18 12:19:06;;;;;;;14.05;2.28;;;;;22.50;101005.00;;;;5069036;28;20128;-73
2021/10/18 12:21:38;;;;;;;15.05;2.50;;;;;22.40;101018.00;;;;5068631;28;20052;-74
2021/10/18 12:24:16;;;;;;;5.72;2.03;;;;;22.20;101042.00;;;;5067634;28;20036;-74
2021/10/18 12:26:52;;;;;;;14.55;3.17;;;;;22.50;101050.00;;;;5067872;28;20592;-74
2021/10/18 12:29:23;;;;;;;7.15;2.10;;;;;22.10;101060.00;;;;5067550;28;20075;-75
2021/10/18 12:31:59;;;;;;;;;;;;;22.60;101073.00;;;;5068312;28;20048;-74
2021/10/18 12:34:30;;;;;;;7.95;2.33;;;;;21.50;101092.00;;;;5068001;28;20049;-73
2021/10/18 12:37:11;;;;;;;10.98;2.63;;;;;21.70;101085.00;;;;5067805;28;20056;-74
2021/10/18 12:39:47;;;;;;;7.32;1.85;;;;;21.60;101088.00;;;;5067721;28;20128;-73
2021/10/18 12:42:27;;;;;;;11.77;2.63;;;;;23.10;101014.00;;;;5083265;28;20537;-73
2021/10/18 12:45:13;;;;;;;216.40;102.55;;;;;23.40;101060.00;;;;5068607;28;20044;-73
2021/10/18 12:47:50;;;;;;;10.18;2.67;;;;;23.30;101015.00;;;;5065903;28;20056;-74
2021/10/18 12:50:22;;;;;;;11.13;2.83;;;;;23.00;101064.00;;;;5068141;28;20435;-73
2021/10/18 12:52:51;;;;;;;9.70;2.20;;;;;22.30;101075.00;;;;5067665;28;20047;-73
2021/10/18 12:55:22;;;;;;;15.50;2.25;;;;;22.50;101066.00;;;;5067631;28;20052;-75
2021/10/18 12:57:52;;;;;;;16.17;3.15;;;;;22.70;101025.00;;;;5067472;28;20051;-74
2021/10/18 13:00:27;;;;;;;7.53;2.25;;;;;23.10;101014.00;;;;5067936;28;20047;-72
2021/10/18 13:03:14;;;;;;;21.80;2.85;;;;;23.20;101044.00;;;;5067726;28;20037;-72
2021/10/18 13:05:50;;;;;;;8.13;1.83;;;;;23.10;101012.00;;;;5066726;28;20061;-74
2021/10/18 13:08:23;;;;;;;7.47;2.28;;;;;23.30;101022.00;;;;5066742;28;20567;-73
2021/10/18 13:10:55;;;;;;;11.73;2.50;;;;;23.40;101016.00;;;;5068472;28;20128;-72
2021/10/18 13:13:26;;;;;;;19.30;9.70;;;;;23.30;101047.00;;;;5067912;28;20050;-72
2021/10/18 13:15:57;;;;;;;17.27;2.60;;;;;23.10;101021.00;;;;5067749;28;20044;-73
2021/10/18 13:18:26;;;;;;;9.45;2.08;;;;;23.70;101016.00;;;;5067379;28;20518;-74
2021/10/18 13:21:00;;;;;;;10.63;2.50;;;;;23.90;101030.00;;;;5067163;28;20056;-74
2021/10/18 13:23:34;;;;;;;7.53;2.10;;;;;23.50;101026.00;;;;5067745;28;20495;-74
2021/10/18 13:26:07;;;;;;;7.43;2.10;;;;;23.40;101019.00;;;;5067037;28;20049;-73
2021/10/18 13:28:37;;;;;;;5.60;1.88;;;;;23.20;101023.00;;;;5066920;28;20613;-74
2021/10/18 13:31:09;;;;;;;10.33;3.13;;;;;23.00;101012.00;;;;5067163;28;20043;-72